Ely, Nevada
Current Conditions -  °F | °C
As of 2:53 AM on Friday 28 Nov 2014 (Local Time) from KELY Reporting Station
Clear Clear  
Wind Chill: -3°   Ceiling: Unl
Heat Index: -1°   Visibility: 10mi
Dew Point: -11°   Wind: 5mph
Humidity: 46%   Direction: 120°ESE
Pressure: 30.19"   Gusts: NA
Location:  39.25°N, 114.87°W
Report Text: KELY 281053Z AUTO 12004KT 10SM CLR M01/M11 A3019 RMK AO2 SLP183 T10061111
Loading
Personal Weather Stations






























Interactive Weather Map New forecast layout! Learn more

10-Day Weather Forecast

Advertisements
Track Severe Weather on mobile